Terminal Aerodrome Forecast
Issued by NWS Sioux Falls, SD

Home | Current Version | Previous Version | Graphics & Text | Print | Product List | Glossary Off
Versions: 1 2 3 4 5 6 7 8 9 10 11 12 13

000
FTUS43 KFSD 282320
TAFHON
TAF
KHON 282320Z 2900/2924 10007KT P6SM BKN150
     FM292100 11012G18KT P6SM BKN090=

USA.gov is the U.S. government's official web portal to all federal, state and local government web resources and services.